createdAt,value
2023-03-21T00:00:45.571Z,11.03
2023-03-21T00:03:12.961Z,12.00
2023-03-21T00:05:45.764Z,11.57
2023-03-21T00:08:13.011Z,12.03
2023-03-21T00:10:43.724Z,13.00
2023-03-21T00:13:14.862Z,15.60
2023-03-21T00:16:08.650Z,15.30
2023-03-21T00:18:42.452Z,12.20
2023-03-21T00:24:00.160Z,11.70
2023-03-21T00:26:27.629Z,13.00
2023-03-21T00:28:54.890Z,12.10
2023-03-21T00:31:22.126Z,11.50
2023-03-21T00:33:49.305Z,10.70
2023-03-21T00:36:16.845Z,10.53
2023-03-21T00:38:44.336Z,9.83
2023-03-21T00:41:23.261Z,10.00
2023-03-21T00:43:55.598Z,10.10
2023-03-21T00:46:25.108Z,9.93
2023-03-21T00:48:52.646Z,9.77
2023-03-21T00:51:26.031Z,10.23
2023-03-21T00:53:56.501Z,9.97
2023-03-21T00:56:23.701Z,8.90
2023-03-21T00:58:51.284Z,9.80
2023-03-21T01:01:18.616Z,9.83
2023-03-21T01:03:48.217Z,9.97
2023-03-21T01:06:19.406Z,9.40
2023-03-21T01:08:54.794Z,10.07
2023-03-21T01:11:24.671Z,10.00
2023-03-21T01:13:59.617Z,10.07
2023-03-21T01:16:34.973Z,9.43
2023-03-21T01:19:05.163Z,10.30
2023-03-21T01:21:34.466Z,9.13
2023-03-21T01:24:01.828Z,9.53
2023-03-21T01:26:29.295Z,9.60
2023-03-21T01:28:56.536Z,9.73
2023-03-21T01:31:23.788Z,9.13
2023-03-21T01:33:51.013Z,8.23
2023-03-21T01:36:24.203Z,9.23
2023-03-21T01:38:52.484Z,8.47
2023-03-21T01:41:26.195Z,8.67
2023-03-21T01:43:56.025Z,8.23
2023-03-21T01:46:23.693Z,9.03
2023-03-21T01:49:02.165Z,8.23
2023-03-21T01:51:30.901Z,8.63
2023-03-21T01:53:58.295Z,8.10
2023-03-21T01:56:27.508Z,8.07
2023-03-21T01:58:57.482Z,8.37
2023-03-21T02:01:24.752Z,7.77
2023-03-21T02:03:52.586Z,7.77
2023-03-21T02:06:35.409Z,8.50
2023-03-21T02:09:04.679Z,8.03
2023-03-21T02:11:32.325Z,7.77
2023-03-21T02:14:06.111Z,7.70
2023-03-21T02:16:54.423Z,7.63
2023-03-21T02:19:32.027Z,7.53
2023-03-21T02:22:08.125Z,6.47
2023-03-21T02:24:36.929Z,7.40
2023-03-21T02:27:07.894Z,7.63
2023-03-21T02:29:52.433Z,7.57
2023-03-21T02:32:37.035Z,8.07
2023-03-21T02:35:19.862Z,7.87
2023-03-21T02:38:00.678Z,7.77
2023-03-21T02:40:51.162Z,7.83
2023-03-21T02:43:28.966Z,7.37
2023-03-21T02:46:01.023Z,7.30
2023-03-21T02:48:50.389Z,7.33
2023-03-21T02:51:19.772Z,8.30
2023-03-21T02:53:51.855Z,7.40
2023-03-21T02:56:23.313Z,7.90
2023-03-21T02:58:51.199Z,8.00
2023-03-21T03:01:18.489Z,7.70
2023-03-21T03:03:45.812Z,7.20
2023-03-21T03:06:36.965Z,7.33
2023-03-21T03:09:06.941Z,7.30
2023-03-21T03:11:35.816Z,7.33
2023-03-21T03:14:35.786Z,7.33
2023-03-21T03:16:59.783Z,8.37
2023-03-21T03:19:31.207Z,8.97
2023-03-21T03:22:09.735Z,10.23
2023-03-21T03:24:43.952Z,9.80
2023-03-21T03:27:17.725Z,8.93
2023-03-21T03:29:47.445Z,9.67
2023-03-21T03:32:18.147Z,10.40
2023-03-21T03:34:49.646Z,11.13
2023-03-21T03:37:19.917Z,10.70
2023-03-21T03:39:48.743Z,10.37
2023-03-21T03:42:28.131Z,12.27
2023-03-21T03:44:56.611Z,11.63
2023-03-21T03:47:33.732Z,10.47
2023-03-21T03:50:03.951Z,11.20
2023-03-21T03:52:33.310Z,10.30
2023-03-21T03:55:00.844Z,10.80
2023-03-21T03:57:28.313Z,10.60
2023-03-21T03:59:55.516Z,12.10
2023-03-21T04:02:22.747Z,10.23
2023-03-21T04:04:52.987Z,10.53
2023-03-21T04:07:21.490Z,10.03
2023-03-21T04:09:48.981Z,10.33
2023-03-21T04:12:16.774Z,10.20
2023-03-21T04:14:46.130Z,10.90
2023-03-21T04:17:14.523Z,10.50
2023-03-21T04:19:41.722Z,8.67
2023-03-21T04:22:09.297Z,9.93
2023-03-21T04:24:37.492Z,9.67
2023-03-21T04:27:06.003Z,9.73
2023-03-21T04:29:33.497Z,9.37
2023-03-21T04:32:01.447Z,10.50
2023-03-21T04:34:29.871Z,9.80
2023-03-21T04:36:57.578Z,8.93
2023-03-21T04:39:25.050Z,10.47
2023-03-21T04:41:52.422Z,10.47
2023-03-21T04:44:19.986Z,10.30
2023-03-21T04:46:47.216Z,9.93
2023-03-21T04:49:14.503Z,9.77
2023-03-21T04:51:44.011Z,9.50
2023-03-21T04:56:41.201Z,9.57
2023-03-21T04:59:11.863Z,9.07
2023-03-21T05:01:41.309Z,9.40
2023-03-21T05:04:08.635Z,9.57
2023-03-21T05:06:36.426Z,9.57
2023-03-21T05:09:08.047Z,9.47
2023-03-21T05:11:37.779Z,9.70
2023-03-21T05:14:05.823Z,9.37
2023-03-21T05:16:34.765Z,9.37
2023-03-21T05:19:06.107Z,9.67
2023-03-21T05:21:41.744Z,9.43
2023-03-21T05:24:12.239Z,10.27
2023-03-21T05:26:40.359Z,9.20
2023-03-21T05:29:08.275Z,9.87
2023-03-21T05:31:36.250Z,10.03
2023-03-21T05:34:03.735Z,10.30
2023-03-21T05:36:34.163Z,9.50
2023-03-21T05:39:01.903Z,9.63
2023-03-21T05:41:29.186Z,10.10
2023-03-21T05:43:56.505Z,11.63
2023-03-21T05:46:23.774Z,10.53
2023-03-21T05:48:51.155Z,10.90
2023-03-21T05:51:18.854Z,10.17
2023-03-21T05:53:47.389Z,10.80
2023-03-21T05:56:14.564Z,10.07
2023-03-21T05:58:41.996Z,10.57
2023-03-21T06:01:09.446Z,10.27
2023-03-21T06:03:36.815Z,9.93
2023-03-21T06:06:04.320Z,10.90
2023-03-21T06:08:32.211Z,11.23
2023-03-21T06:10:59.534Z,11.33
2023-03-21T06:13:26.823Z,10.67
2023-03-21T06:15:54.141Z,10.73
2023-03-21T06:18:21.400Z,10.80
2023-03-21T06:20:48.602Z,11.80
2023-03-21T06:23:15.909Z,11.50
2023-03-21T06:25:43.104Z,11.47
2023-03-21T06:28:10.308Z,13.20
2023-03-21T06:30:37.492Z,12.37
2023-03-21T06:33:04.678Z,10.97
2023-03-21T06:35:31.905Z,12.03
2023-03-21T06:37:59.745Z,11.50
2023-03-21T06:40:26.923Z,11.50
2023-03-21T06:42:54.139Z,12.00
2023-03-21T06:45:21.483Z,11.93
2023-03-21T06:47:48.788Z,12.37
2023-03-21T06:50:16.252Z,10.37
2023-03-21T06:52:43.566Z,10.30
2023-03-21T06:55:11.423Z,10.67
2023-03-21T06:57:38.667Z,10.90
2023-03-21T07:00:06.166Z,11.70
2023-03-21T07:02:33.486Z,11.17
2023-03-21T07:05:00.676Z,10.53
2023-03-21T07:07:29.314Z,10.30
2023-03-21T07:09:56.598Z,9.83
2023-03-21T07:12:24.489Z,9.97
2023-03-21T07:14:51.833Z,10.23
2023-03-21T07:17:19.016Z,10.40
2023-03-21T07:19:46.320Z,10.33
2023-03-21T07:22:13.532Z,9.50
2023-03-21T07:24:40.819Z,9.57
2023-03-21T07:27:08.306Z,10.23
2023-03-21T07:29:35.531Z,9.87
2023-03-21T07:32:02.842Z,9.47
2023-03-21T07:34:33.186Z,9.10
2023-03-21T07:37:01.300Z,9.43
2023-03-21T07:39:29.606Z,9.20
2023-03-21T07:41:56.946Z,9.97
2023-03-21T07:44:25.093Z,10.00
2023-03-21T07:46:52.400Z,10.17
2023-03-21T07:49:19.666Z,9.50
2023-03-21T07:51:47.274Z,9.77
2023-03-21T07:54:14.641Z,9.27
2023-03-21T07:56:41.973Z,9.40
2023-03-21T07:59:09.905Z,10.03
2023-03-21T08:01:37.293Z,9.00
2023-03-21T08:04:04.519Z,9.73
2023-03-21T08:06:32.532Z,8.87
2023-03-21T08:08:59.991Z,10.20
2023-03-21T08:11:31.374Z,9.93
2023-03-21T08:13:59.420Z,9.50
2023-03-21T08:16:26.815Z,9.63
2023-03-21T08:18:54.230Z,10.37
2023-03-21T08:21:21.507Z,10.03
2023-03-21T08:23:48.711Z,10.53
2023-03-21T08:26:18.461Z,10.10
2023-03-21T08:28:46.320Z,9.87
2023-03-21T08:31:14.962Z,10.50
2023-03-21T08:33:42.225Z,10.03
2023-03-21T08:36:09.981Z,10.97
2023-03-21T08:38:37.526Z,10.40
2023-03-21T08:41:04.773Z,11.87
2023-03-21T08:43:31.958Z,11.27
2023-03-21T08:45:59.374Z,10.23
2023-03-21T08:48:26.784Z,10.73
2023-03-21T08:50:54.045Z,11.20
2023-03-21T08:53:21.281Z,13.77
2023-03-21T08:55:50.111Z,12.50
2023-03-21T08:58:17.893Z,11.13
2023-03-21T09:00:45.368Z,12.53
2023-03-21T09:03:12.767Z,13.47
2023-03-21T09:05:40.214Z,13.30
2023-03-21T09:08:07.890Z,13.53
2023-03-21T09:10:35.215Z,12.07
2023-03-21T09:13:02.537Z,12.73
2023-03-21T09:15:29.948Z,12.30
2023-03-21T09:17:58.835Z,13.10
2023-03-21T09:20:31.470Z,12.00
2023-03-21T09:23:01.058Z,12.63
2023-03-21T09:25:31.397Z,13.27
2023-03-21T09:27:59.067Z,12.70
2023-03-21T09:30:26.698Z,13.00
2023-03-21T09:32:55.828Z,13.10
2023-03-21T09:35:24.313Z,12.23
2023-03-21T09:37:51.602Z,14.97
2023-03-21T09:40:21.166Z,14.47
2023-03-21T09:42:48.431Z,13.73
2023-03-21T09:45:38.773Z,15.10
2023-03-21T09:48:07.880Z,14.37
2023-03-21T09:50:36.503Z,14.37
2023-03-21T09:53:07.221Z,12.70
2023-03-21T09:55:36.659Z,14.47
2023-03-21T09:58:09.157Z,15.00
2023-03-21T10:00:42.103Z,14.07
2023-03-21T10:03:18.794Z,13.47
2023-03-21T10:05:47.049Z,13.77
2023-03-21T10:08:27.276Z,12.00
2023-03-21T10:10:56.680Z,12.57
2023-03-21T10:13:26.067Z,12.73
2023-03-21T10:16:01.092Z,13.03
2023-03-21T10:18:30.022Z,13.87
2023-03-21T10:20:57.409Z,12.67
2023-03-21T10:23:27.492Z,12.97
2023-03-21T10:26:02.932Z,14.23
2023-03-21T10:28:42.377Z,12.90
2023-03-21T10:31:19.365Z,12.50
2023-03-21T10:33:48.224Z,13.37
2023-03-21T10:36:21.448Z,13.13
2023-03-21T10:38:53.570Z,13.60
2023-03-21T10:41:21.284Z,13.37
2023-03-21T10:44:04.446Z,12.50
2023-03-21T10:46:36.010Z,12.70
2023-03-21T10:49:04.089Z,13.13
2023-03-21T10:51:33.015Z,12.70
2023-03-21T10:54:04.391Z,12.57
2023-03-21T10:56:33.055Z,12.27
2023-03-21T10:59:01.226Z,11.27
2023-03-21T11:01:40.183Z,11.87
2023-03-21T11:04:10.658Z,12.10
2023-03-21T11:06:39.920Z,11.93
2023-03-21T11:09:14.601Z,12.23
2023-03-21T11:11:43.189Z,12.27
2023-03-21T11:14:25.131Z,12.17
2023-03-21T11:16:52.517Z,11.83
2023-03-21T11:19:21.286Z,12.77
2023-03-21T11:21:48.519Z,12.23
2023-03-21T11:24:18.079Z,11.10
2023-03-21T11:26:48.197Z,12.23
2023-03-21T11:29:25.345Z,12.30
2023-03-21T11:31:52.649Z,11.77
2023-03-21T11:34:28.155Z,13.87
2023-03-21T11:36:59.358Z,13.70
2023-03-21T11:39:29.339Z,12.43
2023-03-21T11:41:56.603Z,12.37
2023-03-21T11:44:28.325Z,12.80
2023-03-21T11:46:55.863Z,15.25
2023-03-21T11:49:24.149Z,14.52
2023-03-21T11:52:11.502Z,13.55
2023-03-21T11:55:07.921Z,14.18
2023-03-21T11:57:37.991Z,13.93
2023-03-21T12:00:10.677Z,14.02
2023-03-21T12:02:38.059Z,13.93
2023-03-21T12:05:08.370Z,13.45
2023-03-21T12:07:50.494Z,13.48
2023-03-21T12:10:50.568Z,11.88
2023-03-21T12:13:37.742Z,11.88
2023-03-21T12:16:08.167Z,10.90
2023-03-21T12:18:46.741Z,11.60
2023-03-21T12:21:21.661Z,11.80
2023-03-21T12:24:09.156Z,11.07
2023-03-21T12:26:44.545Z,11.65
2023-03-21T12:29:20.902Z,11.40
2023-03-21T12:32:04.914Z,12.18
2023-03-21T12:34:44.370Z,11.13
2023-03-21T12:37:26.693Z,11.55
2023-03-21T12:39:56.423Z,11.90
2023-03-21T12:42:23.729Z,12.45
2023-03-21T12:44:52.951Z,11.68
2023-03-21T12:47:27.726Z,12.40
2023-03-21T12:50:06.779Z,11.10
2023-03-21T12:52:39.970Z,11.65
2023-03-21T12:55:23.598Z,12.40
2023-03-21T12:57:57.465Z,12.23
2023-03-21T13:01:03.205Z,11.80
2023-03-21T13:03:40.232Z,10.90
2023-03-21T13:06:08.255Z,11.30
2023-03-21T13:48:57.964Z,13.25
2023-03-21T13:51:37.391Z,12.73
2023-03-21T13:54:04.683Z,12.63
2023-03-21T13:56:50.176Z,12.35
2023-03-21T13:59:39.292Z,13.05
2023-03-21T14:02:15.573Z,11.80
2023-03-21T14:05:03.639Z,12.75
2023-03-21T14:07:32.920Z,13.25
2023-03-21T14:10:07.386Z,13.93
2023-03-21T14:12:38.197Z,13.10
2023-03-21T14:15:17.235Z,13.05
2023-03-21T14:17:54.186Z,14.38
2023-03-21T14:20:23.285Z,13.50
2023-03-21T14:22:51.194Z,14.82
2023-03-21T14:25:19.805Z,14.23
2023-03-21T14:27:52.619Z,13.13
2023-03-21T14:30:22.828Z,13.35
2023-03-21T14:32:50.142Z,13.70
2023-03-21T14:35:17.969Z,13.00
2023-03-21T14:37:47.442Z,13.02
2023-03-21T14:40:32.903Z,13.18
2023-03-21T14:43:04.592Z,12.43
2023-03-21T14:45:32.027Z,11.77
2023-03-21T14:47:59.297Z,12.00
2023-03-21T14:50:32.111Z,11.93
2023-03-21T14:52:59.852Z,12.70
2023-03-21T14:55:27.389Z,12.73
2023-03-21T14:57:56.068Z,12.45
2023-03-21T15:00:28.027Z,11.75
2023-03-21T15:02:56.055Z,12.65
2023-03-21T15:05:28.351Z,13.13
2023-03-21T15:07:57.621Z,12.52
2023-03-21T15:10:25.427Z,12.32
2023-03-21T15:12:53.182Z,12.38
2023-03-21T15:15:21.125Z,12.32
2023-03-21T15:17:48.404Z,11.88
2023-03-21T15:20:16.849Z,14.10
2023-03-21T15:22:49.178Z,13.00
2023-03-21T15:25:20.962Z,12.40
2023-03-21T15:27:50.242Z,12.93
2023-03-21T15:30:22.951Z,12.82
2023-03-21T15:32:51.078Z,14.77
2023-03-21T15:35:23.019Z,15.45
2023-03-21T15:37:54.797Z,14.20
2023-03-21T15:40:23.851Z,14.05
2023-03-21T15:42:51.501Z,14.60
2023-03-21T15:45:24.710Z,13.93
2023-03-21T15:48:03.171Z,13.95
2023-03-21T15:50:30.772Z,13.38
2023-03-21T15:53:00.190Z,13.25
2023-03-21T15:55:36.210Z,15.30
2023-03-21T15:58:13.049Z,13.98
2023-03-21T16:00:41.962Z,13.10
2023-03-21T16:03:16.910Z,13.77
2023-03-21T16:05:44.327Z,13.00
2023-03-21T16:08:27.798Z,13.20
2023-03-21T16:10:55.039Z,13.57
2023-03-21T16:13:23.281Z,13.93
2023-03-21T16:15:50.612Z,13.57
2023-03-21T16:18:17.785Z,15.67
2023-03-21T16:20:46.185Z,15.57
2023-03-21T16:23:13.979Z,14.87
2023-03-21T16:25:42.063Z,14.50
2023-03-21T16:28:16.524Z,15.87
2023-03-21T16:30:43.879Z,16.17
2023-03-21T16:33:14.371Z,17.50
2023-03-21T16:35:44.146Z,16.10
2023-03-21T16:38:13.672Z,16.73
2023-03-21T16:40:43.398Z,16.47
2023-03-21T16:43:11.718Z,16.03
2023-03-21T16:45:39.038Z,15.37
2023-03-21T16:48:08.780Z,15.43
2023-03-21T16:50:37.876Z,16.10
2023-03-21T16:53:05.342Z,15.57
2023-03-21T16:55:34.772Z,16.20
2023-03-21T16:58:02.641Z,15.63
2023-03-21T17:00:30.869Z,18.97
2023-03-21T17:03:00.845Z,18.47
2023-03-21T17:05:30.625Z,19.57
2023-03-21T17:08:02.134Z,18.07
2023-03-21T17:10:30.872Z,19.30
2023-03-21T17:12:58.145Z,18.47
2023-03-21T17:15:25.663Z,19.43
2023-03-21T17:17:55.518Z,19.93
2023-03-21T17:20:25.281Z,21.23
2023-03-21T17:22:52.565Z,19.43
2023-03-21T17:25:20.006Z,19.47
2023-03-21T17:27:48.126Z,20.93
2023-03-21T17:30:29.458Z,20.20
2023-03-21T17:32:56.823Z,23.47
2023-03-21T17:35:24.863Z,26.90
2023-03-21T17:37:54.716Z,30.80
2023-03-21T17:40:26.577Z,33.03
2023-03-21T17:42:55.540Z,39.63
2023-03-21T17:45:23.393Z,39.67
2023-03-21T17:47:51.120Z,41.53
2023-03-21T17:50:23.307Z,33.57
2023-03-21T17:52:51.530Z,32.73
2023-03-21T17:55:21.218Z,44.70
2023-03-21T17:57:49.640Z,55.70
2023-03-21T18:00:22.757Z,60.53
2023-03-21T18:02:50.384Z,55.97
2023-03-21T18:05:17.741Z,47.67
2023-03-21T18:08:08.662Z,42.30
2023-03-21T18:10:32.493Z,36.00
2023-03-21T18:13:00.269Z,33.73
2023-03-21T18:15:30.468Z,29.23
2023-03-21T18:17:57.935Z,29.40
2023-03-21T18:20:44.568Z,31.37
2023-03-21T18:23:14.612Z,40.37
2023-03-21T18:25:41.839Z,47.43
2023-03-21T18:28:11.858Z,46.00
2023-03-21T18:33:27.783Z,36.30
2023-03-21T18:35:59.437Z,36.17
2023-03-21T18:38:27.827Z,36.10
2023-03-21T18:40:55.656Z,35.60
2023-03-21T18:46:10.365Z,36.23
2023-03-21T18:48:37.615Z,44.07
2023-03-21T18:51:05.768Z,44.27
2023-03-21T18:53:33.056Z,38.20
2023-03-21T18:56:00.766Z,36.67
2023-03-21T18:58:29.071Z,39.40
2023-03-21T19:00:58.350Z,37.93
2023-03-21T19:03:35.734Z,34.53
2023-03-21T19:06:04.757Z,32.80
2023-03-21T19:08:34.032Z,31.00
2023-03-21T19:11:04.419Z,28.40
2023-03-21T19:13:33.559Z,27.90
2023-03-21T19:16:02.615Z,27.87
2023-03-21T19:18:49.986Z,26.70
2023-03-21T19:21:17.496Z,26.53
2023-03-21T19:24:22.549Z,30.17
2023-03-21T19:26:31.862Z,32.10
2023-03-21T19:28:59.099Z,34.23
2023-03-21T19:31:26.854Z,34.20
2023-03-21T19:33:54.197Z,34.07
2023-03-21T19:36:23.095Z,30.30
2023-03-21T19:38:50.538Z,31.40
2023-03-21T19:41:18.257Z,31.33
2023-03-21T19:43:53.630Z,31.47
2023-03-21T19:46:24.752Z,34.23
2023-03-21T19:48:56.519Z,32.27
2023-03-21T19:51:30.003Z,30.30
2023-03-21T19:54:01.540Z,33.00
2023-03-21T19:56:28.775Z,32.13
2023-03-21T19:58:56.428Z,34.43
2023-03-21T20:01:24.811Z,34.87
2023-03-21T20:03:53.449Z,35.53
2023-03-21T20:06:22.540Z,34.73
2023-03-21T20:09:27.211Z,34.10
2023-03-21T20:11:37.049Z,33.73
2023-03-21T20:14:05.370Z,33.37
2023-03-21T20:16:35.807Z,33.90
2023-03-21T20:19:09.034Z,35.00
2023-03-21T20:21:46.096Z,34.40
2023-03-21T20:24:16.549Z,34.17
2023-03-21T20:26:45.107Z,34.40
2023-03-21T20:30:05.396Z,34.73
2023-03-21T20:31:59.709Z,34.70
2023-03-21T20:34:28.500Z,36.40
2023-03-21T20:36:56.482Z,37.23
2023-03-21T20:39:24.649Z,35.87
2023-03-21T20:41:54.673Z,36.47
2023-03-21T20:44:57.353Z,36.23
2023-03-21T20:47:09.111Z,35.13
2023-03-21T20:49:36.545Z,36.30
2023-03-21T20:54:54.733Z,37.13
2023-03-21T20:57:22.248Z,38.33
2023-03-21T20:59:50.081Z,37.00
2023-03-21T21:02:17.283Z,37.10
2023-03-21T21:05:05.081Z,34.63
2023-03-21T21:07:31.738Z,32.80
2023-03-21T21:09:59.054Z,32.23
2023-03-21T21:12:29.249Z,30.83
2023-03-21T21:14:56.762Z,33.03
2023-03-21T21:17:54.151Z,31.40
2023-03-21T21:20:18.248Z,30.73
2023-03-21T21:22:58.450Z,30.00
2023-03-21T21:25:26.725Z,31.50
2023-03-21T21:27:53.965Z,33.03
2023-03-21T21:30:21.347Z,31.97
2023-03-21T21:32:49.505Z,32.13
2023-03-21T21:35:18.127Z,29.90
2023-03-21T21:37:45.369Z,32.63
2023-03-21T21:40:15.149Z,30.00
2023-03-21T21:42:43.249Z,29.43
2023-03-21T21:45:11.877Z,28.60
2023-03-21T21:47:39.179Z,29.07
2023-03-21T21:50:07.446Z,30.70
2023-03-21T21:52:34.731Z,29.90
2023-03-21T21:55:02.207Z,29.23
2023-03-21T21:57:34.786Z,28.93
2023-03-21T22:00:06.707Z,29.53
2023-03-21T22:02:34.151Z,31.53
2023-03-21T22:05:01.390Z,30.67
2023-03-21T22:07:28.825Z,30.37
2023-03-21T22:09:56.164Z,28.83
2023-03-21T22:12:23.373Z,30.23
2023-03-21T22:14:51.055Z,28.90
2023-03-21T22:17:18.238Z,30.10
2023-03-21T22:19:58.947Z,30.83
2023-03-21T22:22:31.824Z,30.30
2023-03-21T22:24:59.048Z,30.63
2023-03-21T22:27:26.245Z,29.07
2023-03-21T22:29:53.560Z,27.37
2023-03-21T22:32:21.434Z,28.43
2023-03-21T22:34:48.667Z,26.97
2023-03-21T22:37:16.118Z,28.33
2023-03-21T22:39:43.345Z,27.97
2023-03-21T22:42:10.558Z,28.37
2023-03-21T22:44:37.760Z,28.80
2023-03-21T22:47:06.165Z,28.50
2023-03-21T22:49:33.588Z,29.23
2023-03-21T22:52:01.416Z,28.70
2023-03-21T22:54:28.645Z,29.13
2023-03-21T22:56:57.080Z,28.87
2023-03-21T22:59:24.843Z,26.87
2023-03-21T23:01:52.460Z,29.37
2023-03-21T23:04:19.735Z,29.17
2023-03-21T23:06:47.246Z,30.10
2023-03-21T23:09:14.525Z,29.13
2023-03-21T23:11:42.967Z,28.87
2023-03-21T23:14:10.212Z,30.23
2023-03-21T23:16:38.466Z,28.30
2023-03-21T23:19:07.845Z,29.10
2023-03-21T23:21:36.644Z,29.37
2023-03-21T23:24:03.847Z,29.73
2023-03-21T23:26:31.443Z,29.40
2023-03-21T23:28:58.719Z,29.90
2023-03-21T23:31:27.702Z,30.27
2023-03-21T23:33:55.995Z,28.93
2023-03-21T23:36:23.334Z,29.13
2023-03-21T23:38:50.927Z,28.30
2023-03-21T23:41:19.640Z,31.47
2023-03-21T23:43:47.400Z,31.10
2023-03-21T23:46:15.554Z,32.37
2023-03-21T23:48:43.475Z,31.03
2023-03-21T23:51:11.256Z,30.40
2023-03-21T23:53:39.389Z,32.20
2023-03-21T23:56:14.248Z,32.77
2023-03-21T23:58:50.090Z,33.87
